createdAt,value
2023-03-05T00:07:20.058Z,103.43
2023-03-05T00:17:33.143Z,92.32
2023-03-05T00:22:39.845Z,72.05
2023-03-05T00:27:45.959Z,61.92
2023-03-05T00:37:59.232Z,76.40
2023-03-05T00:43:06.016Z,99.38
2023-03-05T00:48:12.937Z,105.10
2023-03-05T00:53:19.803Z,83.40
2023-03-05T00:58:25.980Z,103.45
2023-03-05T01:08:40.518Z,104.67
2023-03-05T01:13:46.994Z,91.78
2023-03-05T01:18:53.299Z,101.70
2023-03-05T01:29:06.457Z,90.22
2023-03-05T01:34:18.511Z,131.52
2023-03-05T01:39:24.920Z,101.15
2023-03-05T01:44:33.333Z,107.70
2023-03-05T01:49:42.944Z,105.15
2023-03-05T01:55:08.315Z,96.90
2023-03-05T02:00:24.753Z,81.63
2023-03-05T02:10:53.535Z,107.43
2023-03-05T02:16:03.821Z,82.15
2023-03-05T02:21:12.681Z,93.07
2023-03-05T02:26:20.447Z,95.72
2023-03-05T02:31:28.365Z,107.50
2023-03-05T02:36:35.343Z,103.47
2023-03-05T02:41:42.077Z,118.20
2023-03-05T02:46:49.013Z,110.30
2023-03-05T02:51:55.684Z,102.72
2023-03-05T02:57:02.638Z,109.57
2023-03-05T03:02:09.325Z,103.75
2023-03-05T03:07:16.729Z,117.35
2023-03-05T03:12:23.339Z,103.43
2023-03-05T03:17:30.047Z,103.30
2023-03-05T03:22:36.754Z,84.57
2023-03-05T03:27:43.482Z,95.28
2023-03-05T03:32:50.061Z,108.28
2023-03-05T03:37:56.728Z,82.13
2023-03-05T03:43:03.236Z,102.53
2023-03-05T03:48:09.866Z,86.60
2023-03-05T03:53:16.506Z,93.43
2023-03-05T03:58:23.128Z,96.88
2023-03-05T04:03:29.620Z,104.07
2023-03-05T04:08:35.849Z,90.50
2023-03-05T04:18:48.483Z,87.80
2023-03-05T04:23:54.875Z,71.40
2023-03-05T04:29:01.380Z,84.30
2023-03-05T04:34:08.740Z,111.65
2023-03-05T04:39:15.404Z,107.35
2023-03-05T04:44:25.032Z,97.43
2023-03-05T04:49:31.900Z,120.85
2023-03-05T04:54:38.236Z,112.90
2023-03-05T04:59:44.743Z,125.50
2023-03-05T05:04:54.551Z,122.82
2023-03-05T05:10:01.071Z,103.32
2023-03-05T05:15:08.704Z,104.05
2023-03-05T05:20:17.082Z,100.25
2023-03-05T05:25:23.671Z,80.38
2023-03-05T05:30:29.762Z,102.03
2023-03-05T05:35:36.868Z,97.43
2023-03-05T05:40:43.615Z,109.10
2023-03-05T05:45:50.246Z,109.18
2023-03-05T05:50:57.055Z,99.50
2023-03-05T06:01:55.113Z,81.43
2023-03-05T06:07:02.001Z,103.70
2023-03-05T06:12:08.896Z,107.88
2023-03-05T06:17:25.076Z,104.38
2023-03-05T06:22:40.642Z,117.50
2023-03-05T06:27:47.648Z,107.15
2023-03-05T06:32:53.916Z,110.82
2023-03-05T06:43:06.401Z,73.50
2023-03-05T06:48:14.519Z,88.57
2023-03-05T06:53:21.570Z,88.05
2023-03-05T06:58:27.915Z,116.82
2023-03-05T07:03:35.167Z,96.10
2023-03-05T07:08:48.716Z,138.15
2023-03-05T07:13:55.128Z,131.52
2023-03-05T07:19:04.579Z,140.27
2023-03-05T07:24:11.988Z,88.63
2023-03-05T07:29:18.317Z,87.22
2023-03-05T07:34:27.183Z,124.10
2023-03-05T07:39:34.306Z,115.47
2023-03-05T07:44:40.771Z,94.45
2023-03-05T07:49:47.872Z,135.07
2023-03-05T07:54:54.182Z,110.35
2023-03-05T08:00:00.584Z,70.38
2023-03-05T08:05:18.371Z,99.75
2023-03-05T08:10:24.724Z,124.95
2023-03-05T08:20:40.066Z,117.72
2023-03-05T08:25:46.470Z,110.50
2023-03-05T08:31:03.931Z,143.93
2023-03-05T08:36:12.153Z,135.77
2023-03-05T08:41:20.440Z,148.43
2023-03-05T08:46:27.201Z,145.82
2023-03-05T08:51:33.601Z,147.75
2023-03-05T08:56:40.460Z,136.98
2023-03-05T09:01:48.284Z,129.27
2023-03-05T09:06:54.397Z,134.73
2023-03-05T09:12:02.233Z,114.90
2023-03-05T09:17:08.717Z,135.55
2023-03-05T09:22:15.232Z,119.35
2023-03-05T09:27:26.183Z,81.53
2023-03-05T09:32:33.921Z,130.15
2023-03-05T09:37:42.100Z,109.80
2023-03-05T09:43:04.727Z,96.97
2023-03-05T09:48:48.386Z,114.47
2023-03-05T09:54:02.965Z,119.18
2023-03-05T09:59:42.555Z,141.40
2023-03-05T10:05:02.343Z,135.10
2023-03-05T10:10:36.272Z,131.25
2023-03-05T10:16:27.360Z,125.13
2023-03-05T10:21:45.922Z,143.55
2023-03-05T10:27:01.506Z,140.50
2023-03-05T10:32:50.189Z,139.40
2023-03-05T10:38:20.745Z,131.00
2023-03-05T10:43:45.825Z,137.27
2023-03-05T10:49:02.117Z,138.15
2023-03-05T10:59:46.327Z,133.48
2023-03-05T11:04:58.514Z,134.40
2023-03-05T11:16:06.616Z,134.48
2023-03-05T11:21:25.707Z,127.55
2023-03-05T11:27:10.325Z,132.85
2023-03-05T11:32:58.255Z,126.30
2023-03-05T11:38:11.534Z,130.45
2023-03-05T11:43:28.284Z,121.93
2023-03-05T11:49:45.273Z,124.50
2023-03-05T11:55:19.035Z,130.00
2023-03-05T12:00:35.658Z,124.07
2023-03-05T12:06:03.625Z,114.10
2023-03-05T12:11:28.532Z,110.03
2023-03-05T12:16:45.233Z,117.10
2023-03-05T12:21:57.971Z,124.88
2023-03-05T12:34:43.450Z,117.63
2023-03-05T12:39:59.573Z,117.50
2023-03-05T12:45:16.393Z,120.68
2023-03-05T12:50:36.148Z,112.47
2023-03-05T12:55:52.325Z,123.55
2023-03-05T13:01:19.955Z,116.47
2023-03-05T13:06:36.138Z,111.88
2023-03-05T13:25:23.122Z,110.60
2023-03-05T13:30:45.086Z,80.60
2023-03-05T13:42:10.976Z,112.13
2023-03-05T13:47:33.163Z,90.97
2023-03-05T14:13:33.523Z,106.07
2023-03-05T14:19:09.155Z,119.93
2023-03-05T14:30:12.165Z,105.57
2023-03-05T14:35:52.639Z,112.55
2023-03-05T14:41:53.792Z,94.30
2023-03-05T14:47:11.167Z,105.85
2023-03-05T14:53:39.614Z,73.75
2023-03-05T15:20:46.778Z,107.93
2023-03-05T15:25:54.059Z,120.55
2023-03-05T15:31:21.700Z,119.32
2023-03-05T15:41:50.511Z,115.07
2023-03-05T15:47:03.887Z,115.15
2023-03-05T15:52:31.704Z,115.70
2023-03-05T15:57:51.305Z,118.57
2023-03-05T16:03:15.328Z,114.22
2023-03-05T16:09:23.651Z,114.07
2023-03-05T16:14:32.353Z,105.22
2023-03-05T16:25:10.947Z,118.15
2023-03-05T16:30:32.109Z,119.80
2023-03-05T16:41:12.740Z,113.03
2023-03-05T16:46:19.706Z,115.95
2023-03-05T16:51:30.330Z,112.80
2023-03-05T16:56:45.799Z,118.30
2023-03-05T17:01:52.000Z,114.20
2023-03-05T17:06:58.587Z,120.80
2023-03-05T17:12:05.477Z,111.07
2023-03-05T17:17:12.231Z,123.53
2023-03-05T17:22:36.279Z,130.98
2023-03-05T17:27:42.376Z,110.32
2023-03-05T17:32:48.850Z,126.75
2023-03-05T17:48:51.934Z,123.43
2023-03-05T17:54:26.962Z,135.05
2023-03-05T17:59:33.654Z,120.80
2023-03-05T18:04:40.133Z,132.57
2023-03-05T18:09:46.761Z,123.55
2023-03-05T18:14:53.409Z,143.85
2023-03-05T18:20:02.155Z,129.38
2023-03-05T18:25:12.955Z,117.82
2023-03-05T18:30:20.941Z,125.35
2023-03-05T18:35:27.540Z,139.02
2023-03-05T18:40:37.944Z,123.57
2023-03-05T18:45:45.051Z,151.00
2023-03-05T18:50:56.088Z,143.93
2023-03-05T18:56:03.447Z,128.77
2023-03-05T19:01:11.536Z,126.57
2023-03-05T19:06:19.538Z,130.18
2023-03-05T19:11:26.075Z,139.27
2023-03-05T19:16:40.442Z,129.90
2023-03-05T19:21:58.946Z,134.35
2023-03-05T19:27:11.925Z,144.90
2023-03-05T19:32:20.333Z,116.70
2023-03-05T19:37:29.608Z,145.73
2023-03-05T19:42:37.563Z,151.70
2023-03-05T19:47:45.163Z,175.15
2023-03-05T19:52:51.237Z,171.60
2023-03-05T20:03:08.116Z,136.98
2023-03-05T20:08:14.783Z,138.27
2023-03-05T20:13:22.477Z,141.40
2023-03-05T20:18:28.909Z,141.43
2023-03-05T20:23:35.545Z,122.43
2023-03-05T20:28:41.705Z,151.05
2023-03-05T20:39:48.631Z,134.75
2023-03-05T20:40:13.800Z,121.88
2023-03-05T20:44:55.798Z,128.50
2023-03-05T20:50:02.698Z,114.47
2023-03-05T20:55:10.636Z,118.50
2023-03-05T21:00:17.480Z,116.47
2023-03-05T21:05:29.068Z,126.85
2023-03-05T21:10:35.525Z,133.68
2023-03-05T21:15:43.887Z,123.25
2023-03-05T21:20:50.360Z,127.15
2023-03-05T21:25:57.872Z,118.00
2023-03-05T21:31:11.081Z,126.63
2023-03-05T21:36:24.993Z,153.27
2023-03-05T21:41:33.382Z,127.43
2023-03-05T21:46:39.823Z,140.27
2023-03-05T21:52:13.863Z,160.60
2023-03-05T21:57:20.283Z,142.60
2023-03-05T22:02:34.299Z,137.60
2023-03-05T22:07:44.807Z,125.18
2023-03-05T22:13:22.989Z,141.73
2023-03-05T22:18:32.248Z,152.13
2023-03-05T22:23:38.571Z,142.25
2023-03-05T22:33:54.059Z,129.23
2023-03-05T22:39:00.705Z,149.15
2023-03-05T22:44:25.029Z,132.82
2023-03-05T22:49:31.954Z,135.27
2023-03-05T22:54:41.139Z,150.30
2023-03-05T22:59:59.191Z,142.23
2023-03-05T23:05:05.977Z,157.90
2023-03-05T23:10:26.666Z,153.02
2023-03-05T23:15:36.592Z,146.45
2023-03-05T23:20:43.182Z,134.63
2023-03-05T23:25:52.669Z,138.32
2023-03-05T23:31:17.930Z,133.93
2023-03-05T23:36:28.021Z,125.63
2023-03-05T23:41:34.444Z,143.77
2023-03-05T23:46:44.735Z,133.10
2023-03-05T23:51:55.809Z,112.25
2023-03-05T23:57:02.443Z,127.88
